Time;durP1;ratioP1;P1;durP2;ratioP2;P2;SDS_P1;SDS_P2;PMS_P1;PMS_P2;Temp;Humidity;BMP_temperature;BMP_pressure;BME280_temperature;BME280_humidity;BME280_pressure;Samples;Min_cycle;Max_cycle;Signal;HPM_P1;HPM_P2
2023/01/27 00:00:38;;;;;;;68.10;16.80;;;;;;;0.95;100.00;101377.31;6308535;28;20947;-91
2023/01/27 00:03:40;;;;;;;50.88;15.93;;;;;;;1.00;100.00;101373.78;6309618;28;20036;-92
2023/01/27 00:06:42;;;;;;;58.75;15.77;;;;;;;0.96;100.00;101372.16;6309005;28;20048;-91
2023/01/27 00:09:44;;;;;;;53.85;15.27;;;;;;;0.96;100.00;101376.44;6308406;28;20036;-91
2023/01/27 00:16:07;;;;;;;46.58;14.07;;;;;;;1.03;100.00;101360.09;6308421;28;20565;-91
2023/01/27 00:19:09;;;;;;;57.20;15.93;;;;;;;0.98;100.00;101365.31;6308925;28;20047;-91
2023/01/27 00:25:32;;;;;;;53.25;14.82;;;;;;;1.06;100.00;101358.31;6307211;28;20587;-91
2023/01/27 00:28:35;;;;;;;51.33;15.50;;;;;;;1.05;100.00;101353.25;6307808;28;20046;-91
2023/01/27 00:34:57;;;;;;;40.15;14.80;;;;;;;1.07;100.00;101359.16;6299446;28;20059;-91
2023/01/27 00:37:59;;;;;;;32.95;11.82;;;;;;;1.14;100.00;101355.56;6308899;28;20040;-91
2023/01/27 00:41:19;;;;;;;40.30;13.02;;;;;;;1.15;100.00;101353.84;6309739;28;20506;-91
2023/01/27 00:44:22;;;;;;;52.60;15.27;;;;;;;1.10;100.00;101351.44;6292269;28;20052;-91
2023/01/27 00:47:24;;;;;;;47.92;15.00;;;;;;;1.07;100.00;101365.09;6285162;28;20135;-91
2023/01/27 00:50:26;;;;;;;52.03;15.88;;;;;;;1.07;100.00;101359.16;6309375;28;20067;-91
2023/01/27 00:53:29;;;;;;;35.25;13.40;;;;;;;1.17;100.00;101358.03;6308249;28;20043;-91
2023/01/27 00:56:31;;;;;;;58.13;14.48;;;;;;;1.12;100.00;101361.56;6308018;28;20245;-90
2023/01/27 00:59:33;;;;;;;42.72;14.02;;;;;;;1.20;100.00;101380.91;6299774;28;20748;-91
2023/01/27 01:02:35;;;;;;;34.95;13.00;;;;;;;1.25;100.00;101376.50;6294172;28;20101;-91
2023/01/27 01:05:37;;;;;;;34.60;12.20;;;;;;;1.30;100.00;101389.16;6288266;28;20073;-91
2023/01/27 01:08:39;;;;;;;28.75;10.80;;;;;;;1.35;100.00;101387.31;6295227;28;20136;-91
2023/01/27 01:11:40;;;;;;;27.42;11.05;;;;;;;1.40;100.00;101390.56;6281964;28;20213;-91
2023/01/27 01:14:42;;;;;;;26.55;9.82;;;;;;;1.46;100.00;101385.28;6305094;28;20058;-91
2023/01/27 01:17:44;;;;;;;23.27;9.75;;;;;;;1.58;100.00;101393.50;6284735;28;20135;-92
2023/01/27 01:20:46;;;;;;;28.42;10.32;;;;;;;1.62;100.00;101392.56;6302609;28;20532;-92
2023/01/27 01:23:48;;;;;;;27.90;9.52;;;;;;;1.69;100.00;101391.47;6296456;28;20134;-91
2023/01/27 01:26:50;;;;;;;25.60;9.65;;;;;;;1.72;100.00;101387.13;6305109;28;20039;-91
2023/01/27 01:29:52;;;;;;;27.55;9.38;;;;;;;1.67;100.00;101386.44;6303098;28;20044;-92
2023/01/27 01:32:55;;;;;;;29.30;10.90;;;;;;;1.67;100.00;101385.59;6305493;28;20048;-92
2023/01/27 01:36:12;;;;;;;26.55;9.73;;;;;;;1.64;100.00;101383.09;6304882;28;20044;-91
2023/01/27 01:39:13;;;;;;;18.40;8.93;;;;;;;1.55;100.00;101388.50;6306733;28;20051;-91
2023/01/27 01:42:15;;;;;;;23.95;9.43;;;;;;;1.61;100.00;101386.59;6302613;28;20047;-91
2023/01/27 01:45:32;;;;;;;21.52;8.68;;;;;;;1.64;100.00;101391.63;6308212;28;20040;-91
2023/01/27 01:49:03;;;;;;;25.33;9.60;;;;;;;1.72;100.00;101391.41;6305510;28;20032;-91
2023/01/27 01:52:22;;;;;;;20.15;8.80;;;;;;;1.68;100.00;101394.91;6300865;28;20458;-91
2023/01/27 01:55:24;;;;;;;19.25;9.70;;;;;;;1.77;100.00;101392.13;6271811;28;20991;-91
2023/01/27 01:58:28;;;;;;;21.00;8.73;;;;;;;1.79;100.00;101392.91;6302847;28;20043;-91
2023/01/27 02:01:31;;;;;;;22.92;9.52;;;;;;;1.68;100.00;101398.28;6306673;28;20043;-91
2023/01/27 02:04:40;;;;;;;24.85;9.27;;;;;;;1.77;100.00;101391.28;6307173;28;20097;-91
2023/01/27 02:08:11;;;;;;;20.77;8.65;;;;;;;1.75;100.00;101396.41;6307259;28;20036;-91
2023/01/27 02:11:13;;;;;;;21.40;8.55;;;;;;;1.72;100.00;101399.06;6306598;28;20484;-91
2023/01/27 02:14:16;;;;;;;20.50;8.13;;;;;;;1.68;100.00;101392.38;6304439;28;20047;-91
2023/01/27 02:17:18;;;;;;;19.50;8.73;;;;;;;1.67;100.00;101395.81;6307124;28;20083;-91
2023/01/27 02:20:41;;;;;;;17.63;8.45;;;;;;;1.75;100.00;101396.41;6289646;28;20761;-90
2023/01/27 02:23:59;;;;;;;20.30;8.77;;;;;;;1.67;100.00;101398.34;6303770;28;20494;-91
2023/01/27 02:27:02;;;;;;;22.67;7.90;;;;;;;1.72;100.00;101405.00;6294500;28;20616;-91
2023/01/27 02:30:04;;;;;;;19.00;7.72;;;;;;;1.79;100.00;101398.00;6303369;28;20048;-91
2023/01/27 02:33:11;;;;;;;22.30;9.10;;;;;;;1.82;100.00;101390.25;6309539;28;20039;-90
2023/01/27 02:36:16;;;;;;;22.02;7.88;;;;;;;1.69;100.00;101389.78;6310917;28;20248;-91
2023/01/27 02:39:23;;;;;;;15.27;7.30;;;;;;;1.67;100.00;101383.03;6285419;28;20036;-91
2023/01/27 02:42:25;;;;;;;14.63;7.22;;;;;;;1.62;100.00;101390.00;6322637;28;20079;-91
2023/01/27 02:45:27;;;;;;;19.35;8.07;;;;;;;1.77;100.00;101386.19;6303804;28;20093;-91
2023/01/27 02:48:29;;;;;;;17.23;8.40;;;;;;;1.79;100.00;101386.94;6307510;28;20048;-92
2023/01/27 02:51:31;;;;;;;17.33;7.10;;;;;;;1.79;100.00;101390.38;6302265;28;20662;-91
2023/01/27 02:54:33;;;;;;;18.25;7.15;;;;;;;1.90;100.00;101403.63;6311020;28;20572;-91
2023/01/27 02:57:36;;;;;;;17.73;7.40;;;;;;;1.86;100.00;101399.53;6311225;28;20221;-91
2023/01/27 03:01:01;;;;;;;18.20;7.60;;;;;;;1.87;100.00;101408.00;6298947;28;20075;-90
2023/01/27 03:04:04;;;;;;;18.70;8.00;;;;;;;1.88;100.00;101409.66;6306993;28;20071;-91
2023/01/27 03:07:07;;;;;;;20.85;8.00;;;;;;;1.90;100.00;101406.19;6303922;28;20444;-91
2023/01/27 03:10:09;;;;;;;17.85;8.13;;;;;;;1.85;100.00;101404.66;6302041;28;20035;-91
2023/01/27 03:13:11;;;;;;;17.67;7.47;;;;;;;1.88;100.00;101409.66;6296065;28;20589;-91
2023/01/27 03:19:33;;;;;;;19.50;7.43;;;;;;;1.86;100.00;101407.19;6306612;28;20472;-91
2023/01/27 03:22:37;;;;;;;17.15;7.47;;;;;;;1.91;100.00;101419.78;6307137;28;20294;-91
2023/01/27 03:25:46;;;;;;;18.02;7.60;;;;;;;1.92;100.00;101418.91;6310255;28;20044;-91
2023/01/27 03:29:53;;;;;;;17.92;8.20;;;;;;;1.87;100.00;101420.78;6290112;28;20048;-91
2023/01/27 03:32:14;;;;;;;17.42;7.53;;;;;;;1.84;100.00;101420.84;6293126;28;20663;-91
2023/01/27 03:35:32;;;;;;;14.95;6.72;;;;;;;1.88;100.00;101414.78;6306702;28;20066;-91
2023/01/27 03:48:37;;;;;;;20.30;7.93;;;;;;;1.91;100.00;101430.00;6312773;28;20055;-90
2023/01/27 03:51:39;;;;;;;16.90;7.80;;;;;;;1.89;100.00;101426.66;6312883;28;20734;-90
2023/01/27 03:54:40;;;;;;;17.08;7.40;;;;;;;1.88;100.00;101428.38;6313267;28;20619;-90
2023/01/27 03:57:42;;;;;;;15.38;7.18;;;;;;;1.94;100.00;101420.56;6303219;28;20101;-90
2023/01/27 04:00:46;;;;;;;14.27;7.03;;;;;;;1.93;100.00;101430.78;6312447;28;20043;-90
2023/01/27 04:07:11;;;;;;;14.57;6.30;;;;;;;2.02;100.00;101429.72;6301401;28;20346;-90
2023/01/27 04:10:13;;;;;;;12.88;6.75;;;;;;;2.10;100.00;101427.75;6307620;28;20043;-90
2023/01/27 04:13:15;;;;;;;10.32;5.90;;;;;;;2.13;100.00;101425.94;6306224;28;20043;-91
2023/01/27 04:16:18;;;;;;;12.25;6.13;;;;;;;2.14;100.00;101431.91;6305299;28;20120;-90
2023/01/27 04:19:20;;;;;;;9.43;5.50;;;;;;;2.07;100.00;101435.53;6310708;28;20052;-90
2023/01/27 04:22:22;;;;;;;10.80;5.32;;;;;;;2.04;100.00;101430.50;6311567;28;20069;-90
2023/01/27 04:25:24;;;;;;;10.65;5.60;;;;;;;1.98;100.00;101428.94;6312656;28;20121;-90
2023/01/27 04:28:26;;;;;;;10.32;4.95;;;;;;;2.02;100.00;101429.72;6311109;28;20036;-90
2023/01/27 04:31:44;;;;;;;11.23;5.28;;;;;;;2.05;100.00;101439.81;6308282;28;20047;-90
2023/01/27 04:34:46;;;;;;;12.13;5.70;;;;;;;2.13;100.00;101448.09;6310810;28;20048;-90
2023/01/27 04:37:48;;;;;;;13.68;6.18;;;;;;;2.17;100.00;101448.84;6311855;28;20036;-91
2023/01/27 04:40:49;;;;;;;12.75;6.70;;;;;;;2.15;100.00;101452.28;6310742;28;20568;-90
2023/01/27 04:43:51;;;;;;;14.18;6.97;;;;;;;2.15;100.00;101457.38;6311928;28;20044;-91
2023/01/27 04:46:53;;;;;;;11.20;6.00;;;;;;;2.17;100.00;101453.97;6301984;28;20040;-91
2023/01/27 04:49:55;;;;;;;12.13;6.10;;;;;;;2.24;100.00;101456.28;6311725;28;20051;-90
2023/01/27 04:52:57;;;;;;;9.80;5.13;;;;;;;2.29;100.00;101459.56;6309052;28;20505;-90
2023/01/27 04:56:05;;;;;;;13.93;5.88;;;;;;;2.26;100.00;101459.66;6310608;28;20047;-90
2023/01/27 04:59:11;;;;;;;10.18;4.93;;;;;;;2.28;100.00;101464.69;6310706;28;20040;-90
2023/01/27 05:02:13;;;;;;;8.93;4.65;;;;;;;2.26;100.00;101467.31;6308937;28;20040;-90
2023/01/27 05:05:15;;;;;;;10.88;5.10;;;;;;;2.30;100.00;101463.75;6311438;28;20036;-91
2023/01/27 05:08:17;;;;;;;9.43;4.93;;;;;;;2.32;100.00;101471.41;6311209;28;20730;-91
2023/01/27 05:11:18;;;;;;;9.85;5.32;;;;;;;2.34;100.00;101469.63;6311218;28;20040;-91
2023/01/27 05:14:22;;;;;;;8.52;4.93;;;;;;;2.30;100.00;101473.97;6311914;28;20131;-91
2023/01/27 05:17:26;;;;;;;8.68;5.30;;;;;;;2.31;100.00;101482.47;6289039;28;20125;-90
2023/01/27 05:20:30;;;;;;;9.25;4.78;;;;;;;2.27;100.00;101476.63;6310007;28;20082;-90
2023/01/27 05:23:38;;;;;;;9.25;4.35;;;;;;;2.23;100.00;101480.16;6299659;28;20036;-90
2023/01/27 05:26:40;;;;;;;8.80;4.40;;;;;;;2.22;100.00;101481.03;6305969;28;20048;-90
2023/01/27 05:29:42;;;;;;;9.40;5.20;;;;;;;2.21;100.00;101488.72;6306569;28;20480;-91
2023/01/27 05:32:44;;;;;;;8.32;4.47;;;;;;;2.34;100.00;101479.84;6304049;28;20110;-91
2023/01/27 05:35:45;;;;;;;8.60;4.05;;;;;;;2.32;100.00;101494.38;6310310;28;20032;-91
2023/01/27 05:38:47;;;;;;;6.45;3.63;;;;;;;2.39;100.00;101492.50;6310482;28;20386;-91
2023/01/27 05:41:49;;;;;;;7.35;4.82;;;;;;;2.39;100.00;101501.00;6310377;28;20036;-90
2023/01/27 05:44:51;;;;;;;8.57;4.45;;;;;;;2.42;100.00;101498.34;6311615;28;20051;-90
2023/01/27 05:47:52;;;;;;;7.25;4.00;;;;;;;2.40;100.00;101500.09;6308703;28;20044;-91
2023/01/27 05:50:56;;;;;;;10.48;5.50;;;;;;;2.40;100.00;101497.53;6306578;28;20394;-91
2023/01/27 05:53:58;;;;;;;8.20;4.78;;;;;;;2.42;100.00;101494.97;6307149;28;20422;-91
2023/01/27 05:57:00;;;;;;;7.97;4.60;;;;;;;2.43;100.00;101502.56;6308682;28;20383;-91
2023/01/27 06:00:02;;;;;;;6.40;3.75;;;;;;;2.42;100.00;101508.56;6309692;28;20043;-91
2023/01/27 06:03:08;;;;;;;7.38;4.03;;;;;;;2.46;100.00;101510.16;6299906;28;20051;-91
2023/01/27 06:06:12;;;;;;;6.10;3.40;;;;;;;2.50;100.00;101516.00;6312864;28;20112;-90
2023/01/27 06:09:14;;;;;;;5.97;3.67;;;;;;;2.43;100.00;101511.94;6315871;28;20052;-90
2023/01/27 06:12:15;;;;;;;7.68;3.85;;;;;;;2.48;100.00;101523.69;6315154;28;20087;-91
2023/01/27 06:15:17;;;;;;;5.85;3.75;;;;;;;2.40;100.00;101515.44;6313312;28;20044;-90
2023/01/27 06:18:19;;;;;;;6.72;3.75;;;;;;;2.36;100.00;101524.91;6303815;28;20389;-90
2023/01/27 06:21:22;;;;;;;8.05;4.05;;;;;;;2.42;100.00;101523.06;6311134;28;20423;-90
2023/01/27 06:24:23;;;;;;;7.32;3.88;;;;;;;2.42;100.00;101518.78;6312662;28;20044;-90
2023/01/27 06:27:25;;;;;;;6.10;3.60;;;;;;;2.54;100.00;101523.53;6312103;28;20039;-91
2023/01/27 06:30:27;;;;;;;7.70;4.00;;;;;;;2.56;100.00;101523.50;6293808;28;20687;-91
2023/01/27 06:33:29;;;;;;;5.93;3.33;;;;;;;2.62;100.00;101525.03;6302669;28;20051;-90
2023/01/27 06:36:30;;;;;;;6.60;3.50;;;;;;;2.66;100.00;101529.16;6312934;28;20040;-91
2023/01/27 06:39:32;;;;;;;5.53;3.10;;;;;;;2.61;100.00;101528.47;6311812;28;20074;-90
2023/01/27 06:42:35;;;;;;;5.65;3.30;;;;;;;2.53;100.00;101519.28;6306995;28;20069;-91
2023/01/27 06:45:37;;;;;;;5.45;3.08;;;;;;;2.56;100.00;101526.91;6312719;28;20075;-90
2023/01/27 06:48:39;;;;;;;6.38;3.20;;;;;;;2.57;100.00;101533.66;6314342;28;20048;-91
2023/01/27 06:51:42;;;;;;;6.13;3.80;;;;;;;2.54;100.00;101533.75;6300488;28;20039;-91
2023/01/27 06:54:44;;;;;;;4.55;3.08;;;;;;;2.51;100.00;101543.22;6293443;28;20036;-90
2023/01/27 06:57:47;;;;;;;3.60;2.60;;;;;;;2.50;100.00;101546.66;6307099;28;20047;-90
2023/01/27 07:00:49;;;;;;;4.28;3.00;;;;;;;2.49;100.00;101550.13;6314462;28;20497;-90
2023/01/27 07:03:50;;;;;;;4.03;2.35;;;;;;;2.51;100.00;101544.09;6310204;28;20066;-91
2023/01/27 07:06:52;;;;;;;4.95;2.80;;;;;;;2.52;100.00;101555.97;6313134;28;20112;-91
2023/01/27 07:09:54;;;;;;;6.30;2.85;;;;;;;2.53;100.00;101559.34;6310270;28;20040;-92
2023/01/27 07:13:10;;;;;;;3.80;2.70;;;;;;;2.58;100.00;101560.91;6311768;28;20044;-91
2023/01/27 07:16:12;;;;;;;5.18;2.90;;;;;;;2.52;100.00;101560.25;6302444;28;20086;-90
2023/01/27 07:19:15;;;;;;;4.38;2.47;;;;;;;2.50;100.00;101562.84;6293039;28;20132;-90
2023/01/27 07:22:17;;;;;;;4.50;2.53;;;;;;;2.56;100.00;101577.19;6302280;28;20036;-91
2023/01/27 07:25:19;;;;;;;3.63;2.45;;;;;;;2.57;100.00;101573.72;6300737;28;20036;-91
2023/01/27 07:28:20;;;;;;;3.03;2.10;;;;;;;2.56;100.00;101578.00;6292372;28;20047;-91
2023/01/27 07:31:22;;;;;;;3.25;2.17;;;;;;;2.56;100.00;101583.13;6313301;28;20043;-90
2023/01/27 07:34:24;;;;;;;3.60;2.30;;;;;;;2.49;100.00;101583.34;6303590;28;20154;-91
2023/01/27 07:37:26;;;;;;;5.32;2.13;;;;;;;2.52;100.00;101593.47;6312743;28;20040;-91
2023/01/27 07:40:28;;;;;;;4.75;2.20;;;;;;;2.62;100.00;101587.22;6311831;28;20040;-91
2023/01/27 07:43:30;;;;;;;3.25;2.20;;;;;;;2.55;100.00;101590.81;6312729;28;20428;-91
2023/01/27 07:46:32;;;;;;;3.97;2.30;;;;;;;2.57;100.00;101599.28;6307382;28;20053;-91
2023/01/27 07:49:33;;;;;;;3.00;2.30;;;;;;;2.51;100.00;101590.09;6303114;28;20040;-90
2023/01/27 07:52:35;;;;;;;4.22;2.78;;;;;;;2.57;100.00;101591.63;6290360;28;20500;-91
2023/01/27 07:55:36;;;;;;;8.10;4.03;;;;;;;2.55;100.00;101595.94;6313675;28;20047;-90
2023/01/27 07:58:39;;;;;;;5.20;2.45;;;;;;;2.57;100.00;101605.22;6301835;28;20580;-94
2023/01/27 08:01:42;;;;;;;3.70;2.63;;;;;;;2.52;100.00;101614.75;6297295;28;20607;-91
2023/01/27 08:04:47;;;;;;;4.13;2.55;;;;;;;2.49;100.00;101611.44;6302781;28;20067;-91
2023/01/27 08:07:55;;;;;;;3.83;2.53;;;;;;;2.53;100.00;101613.03;6298779;28;20143;-90
2023/01/27 08:11:00;;;;;;;3.72;2.60;;;;;;;2.56;100.00;101620.63;6295652;28;20162;-91
2023/01/27 08:14:02;;;;;;;4.45;2.60;;;;;;;2.59;100.00;101621.38;6310821;28;20075;-90
2023/01/27 08:17:04;;;;;;;6.32;3.35;;;;;;;2.62;100.00;101625.53;6295373;28;20422;-91
2023/01/27 08:20:07;;;;;;;8.65;4.10;;;;;;;2.64;100.00;101623.78;6300464;28;20033;-91
2023/01/27 08:23:08;;;;;;;3.88;2.80;;;;;;;2.66;100.00;101629.69;6302138;28;20452;-91
2023/01/27 08:26:10;;;;;;;4.25;2.60;;;;;;;2.72;100.00;101634.63;6295539;28;20036;-90
2023/01/27 08:29:12;;;;;;;3.97;2.90;;;;;;;2.70;100.00;101641.50;6294670;28;20205;-91
2023/01/27 08:32:14;;;;;;;2.72;2.13;;;;;;;2.69;100.00;101636.44;6296497;28;20052;-91
2023/01/27 08:35:16;;;;;;;3.78;2.40;;;;;;;2.72;100.00;101642.28;6310906;28;20048;-91
2023/01/27 08:38:18;;;;;;;3.22;2.22;;;;;;;2.64;100.00;101638.31;6304954;28;20044;-91
2023/01/27 08:41:25;;;;;;;3.20;1.98;;;;;;;2.67;100.00;101644.16;6289798;28;20047;-90
2023/01/27 08:44:27;;;;;;;3.13;2.10;;;;;;;2.62;100.00;101651.09;6306299;28;20501;-90
2023/01/27 08:47:29;;;;;;;2.55;1.88;;;;;;;2.62;100.00;101656.22;6310293;28;20843;-91
2023/01/27 08:50:32;;;;;;;4.22;2.28;;;;;;;2.62;100.00;101653.66;6301758;28;20117;-90
2023/01/27 08:53:35;;;;;;;2.08;1.73;;;;;;;2.68;100.00;101657.75;6305837;28;20044;-90
2023/01/27 08:56:37;;;;;;;2.28;1.55;;;;;;;2.69;100.00;101647.50;6302652;28;20242;-89
2023/01/27 08:59:39;;;;;;;2.28;1.60;;;;;;;2.67;100.00;101659.47;6306676;28;20098;-90
2023/01/27 09:02:42;;;;;;;2.22;1.65;;;;;;;2.72;100.00;101662.75;6294288;28;20634;-90
2023/01/27 09:05:47;;;;;;;2.15;1.75;;;;;;;2.73;100.00;101666.13;6293315;28;20048;-90
2023/01/27 09:09:07;;;;;;;3.08;1.90;;;;;;;2.73;100.00;101673.81;6296079;28;20032;-90
2023/01/27 09:12:12;;;;;;;3.60;1.75;;;;;;;2.76;100.00;101669.47;6296516;28;20050;-90
2023/01/27 09:15:14;;;;;;;3.08;2.00;;;;;;;2.74;100.00;101689.13;6305606;28;20749;-90
2023/01/27 09:18:16;;;;;;;2.60;1.30;;;;;;;2.74;100.00;101685.72;6301756;28;20048;-90
2023/01/27 09:21:18;;;;;;;2.20;1.25;;;;;;;2.76;100.00;101681.41;6294917;28;20047;-90
2023/01/27 09:24:20;;;;;;;2.03;1.30;;;;;;;2.72;100.00;101690.88;6302116;28;20044;-90
2023/01/27 09:27:22;;;;;;;1.15;1.00;;;;;;;2.74;100.00;101694.22;6311045;28;20405;-91
2023/01/27 09:30:39;;;;;;;1.75;1.27;;;;;;;2.82;100.00;101690.63;6289718;28;20056;-91
2023/01/27 09:33:41;;;;;;;2.00;1.20;;;;;;;2.81;100.00;101687.25;6309846;28;20081;-91
2023/01/27 09:36:48;;;;;;;2.33;1.15;;;;;;;2.93;100.00;101692.00;6301458;28;20040;-91
2023/01/27 09:39:55;;;;;;;1.60;0.85;;;;;;;2.97;100.00;101697.88;6313719;28;20044;-91
2023/01/27 09:43:21;;;;;;;3.08;1.55;;;;;;;2.96;100.00;101691.09;6313841;28;20052;-92
2023/01/27 09:46:44;;;;;;;2.58;1.70;;;;;;;2.91;100.00;101692.94;6312649;28;20043;-91
2023/01/27 09:50:04;;;;;;;2.28;1.00;;;;;;;3.00;100.00;101697.78;6312201;28;20067;-91
2023/01/27 09:53:44;;;;;;;1.45;0.90;;;;;;;3.22;100.00;101691.16;6307236;28;20040;-90
2023/01/27 09:57:14;;;;;;;1.20;1.10;;;;;;;3.21;100.00;101692.03;6309849;28;20036;-91
2023/01/27 10:00:37;;;;;;;1.85;1.40;;;;;;;3.16;100.00;101690.50;6306958;28;20040;-91
2023/01/27 10:04:11;;;;;;;2.38;1.00;;;;;;;3.15;100.00;101693.94;6313521;28;20869;-91
2023/01/27 10:07:51;;;;;;;1.80;1.00;;;;;;;3.18;100.00;101697.25;6234576;28;20542;-90
2023/01/27 10:11:13;;;;;;;3.35;1.20;;;;;;;3.20;100.00;101689.50;6238046;28;20067;-92
2023/01/27 10:14:35;;;;;;;1.67;1.13;;;;;;;3.23;100.00;101681.78;6236400;28;20103;-92
2023/01/27 10:18:09;;;;;;;2.42;1.65;;;;;;;3.34;100.00;101682.28;6235798;28;20466;-91
2023/01/27 10:21:39;;;;;;;1.40;1.15;;;;;;;3.52;100.00;101685.16;6232374;28;20041;-92
2023/01/27 10:25:06;;;;;;;3.20;1.30;;;;;;;3.63;100.00;101678.81;6162790;28;20421;-92
2023/01/27 10:28:13;;;;;;;1.40;1.08;;;;;;;3.63;100.00;101680.56;6161460;28;20558;-92
2023/01/27 10:31:22;;;;;;;1.45;1.10;;;;;;;3.76;100.00;101675.88;6146725;28;20141;-93
2023/01/27 10:35:00;;;;;;;3.95;1.50;;;;;;;3.80;100.00;101670.63;6146786;28;20058;-92
2023/01/27 10:38:02;;;;;;;2.15;1.10;;;;;;;3.97;100.00;101670.03;6090493;29;20079;-92
2023/01/27 10:41:22;;;;;;;2.45;0.90;;;;;;;3.99;100.00;101668.28;6084989;29;20485;-92
2023/01/27 10:44:39;;;;;;;2.03;1.10;;;;;;;4.03;100.00;101674.97;6131089;28;20055;-92
2023/01/27 10:48:14;;;;;;;1.52;1.10;;;;;;;3.94;100.00;101666.75;6163579;28;20507;-92
2023/01/27 10:51:23;;;;;;;1.80;1.15;;;;;;;3.83;100.00;101677.34;6156682;28;20070;-90
2023/01/27 10:54:52;;;;;;;1.38;1.20;;;;;;;3.77;100.00;101675.81;6162822;28;20059;-93
2023/01/27 10:57:59;;;;;;;2.30;1.02;;;;;;;3.74;100.00;101682.75;6161980;28;20050;-92
2023/01/27 11:01:05;;;;;;;1.65;1.00;;;;;;;3.78;100.00;101684.34;6169672;28;20406;-91
2023/01/27 11:04:42;;;;;;;1.33;0.88;;;;;;;3.81;100.00;101679.97;6308069;28;20406;-92
2023/01/27 11:07:57;;;;;;;1.80;0.90;;;;;;;3.73;100.00;101683.66;6312796;28;20043;-92
2023/01/27 11:14:47;;;;;;;1.75;1.10;;;;;;;3.86;100.00;101690.06;6300346;28;20441;-90
2023/01/27 11:17:56;;;;;;;3.58;1.60;;;;;;;3.71;100.00;101688.00;6304915;28;20051;-92
2023/01/27 11:21:03;;;;;;;2.83;1.40;;;;;;;3.63;100.00;101685.69;6313778;28;20036;-92
2023/01/27 11:24:20;;;;;;;2.88;1.33;;;;;;;3.62;100.00;101674.56;6311958;28;20055;-92
2023/01/27 11:27:57;;;;;;;1.58;1.30;;;;;;;3.63;100.00;101678.00;6306090;28;20055;-91
2023/01/27 11:31:11;;;;;;;2.00;1.13;;;;;;;3.56;100.00;101674.78;6219168;28;20521;-92
2023/01/27 11:34:25;;;;;;;1.10;0.95;;;;;;;3.51;100.00;101676.66;6199833;28;20050;-92
2023/01/27 11:37:41;;;;;;;1.48;1.20;;;;;;;3.47;100.00;101681.91;6211176;28;20167;-92
2023/01/27 11:40:46;;;;;;;2.50;1.15;;;;;;;3.36;100.00;101677.94;6211379;28;20058;-91
2023/01/27 11:43:49;;;;;;;3.13;1.40;;;;;;;3.43;100.00;101678.63;6211451;28;20053;-93
2023/01/27 11:46:53;;;;;;;1.50;1.05;;;;;;;3.47;100.00;101679.34;6221928;28;20532;-93
2023/01/27 11:49:56;;;;;;;2.05;1.13;;;;;;;3.49;100.00;101680.97;6189424;28;20089;-92
2023/01/27 11:53:35;;;;;;;1.08;0.98;;;;;;;3.38;100.00;101678.75;6182377;28;20054;-91
2023/01/27 11:56:39;;;;;;;1.38;0.93;;;;;;;3.32;100.00;101668.69;6147277;28;20115;-91
2023/01/27 11:59:42;;;;;;;1.85;1.10;;;;;;;3.25;100.00;101674.88;6143642;28;20101;-93
2023/01/27 12:02:53;;;;;;;2.40;1.33;;;;;;;3.23;100.00;101672.38;6166711;28;20492;-93
2023/01/27 12:06:03;;;;;;;1.83;1.10;;;;;;;3.22;100.00;101674.97;6224281;28;20060;-93
2023/01/27 12:09:04;;;;;;;2.75;1.10;;;;;;;3.17;100.00;101672.53;6305487;28;20047;-92
2023/01/27 12:12:14;;;;;;;1.60;1.50;;;;;;;3.21;100.00;101676.69;6296426;28;20463;-93
2023/01/27 12:15:17;;;;;;;1.67;0.90;;;;;;;3.17;100.00;101672.53;6305133;28;20044;-93
2023/01/27 12:18:19;;;;;;;3.88;0.90;;;;;;;3.18;100.00;101673.38;6300039;28;20583;-92
2023/01/27 12:21:34;;;;;;;0.82;0.60;;;;;;;3.21;100.00;101669.00;6308427;28;20063;-93
2023/01/27 12:24:40;;;;;;;2.10;0.90;;;;;;;3.23;100.00;101666.41;6297735;28;20557;-93
2023/01/27 12:27:53;;;;;;;4.32;1.10;;;;;;;3.32;100.00;101658.44;6291583;28;20142;-93
2023/01/27 12:31:12;;;;;;;1.05;0.90;;;;;;;3.38;100.00;101663.41;6288954;28;20047;-93
2023/01/27 12:34:31;;;;;;;2.72;0.80;;;;;;;3.42;100.00;101661.56;6301451;28;20107;-93
2023/01/27 12:37:37;;;;;;;0.60;0.60;;;;;;;3.39;100.00;101651.44;6307169;28;20177;-93
2023/01/27 12:40:42;;;;;;;0.65;0.60;;;;;;;3.35;100.00;101655.78;6310093;28;20055;-92
2023/01/27 12:43:57;;;;;;;1.23;0.80;;;;;;;3.44;100.00;101657.25;6311655;28;20047;-92
2023/01/27 12:47:24;;;;;;;1.92;0.80;;;;;;;3.45;100.00;101651.22;6294529;28;20043;-92
2023/01/27 12:50:30;;;;;;;1.95;0.80;;;;;;;3.40;100.00;101650.53;6168327;28;20061;-93
2023/01/27 12:53:32;;;;;;;3.55;1.10;;;;;;;3.33;100.00;101652.47;6185104;28;20126;-93
2023/01/27 12:56:34;;;;;;;1.95;0.82;;;;;;;3.27;100.00;101656.91;6169758;28;20372;-93
2023/01/27 12:59:46;;;;;;;2.15;0.80;;;;;;;3.28;100.00;101648.34;6174705;28;20520;-92
2023/01/27 13:02:48;;;;;;;1.75;1.10;;;;;;;3.28;100.00;101646.66;6170285;28;20534;-92
2023/01/27 13:05:58;;;;;;;2.40;1.10;;;;;;;3.33;100.00;101642.22;6156114;28;20054;-93
2023/01/27 13:09:01;;;;;;;5.93;2.45;;;;;;;3.33;100.00;101639.66;6170670;28;20053;-92
2023/01/27 13:12:22;;;;;;;4.10;2.83;;;;;;;3.35;100.00;101648.09;6170753;28;20115;-92
2023/01/27 13:15:27;;;;;;;2.47;1.65;;;;;;;3.24;100.00;101640.78;6169569;28;20919;-93
2023/01/27 13:18:33;;;;;;;3.70;2.00;;;;;;;3.26;100.00;101647.59;6171437;28;20078;-92
2023/01/27 13:21:37;;;;;;;2.53;1.85;;;;;;;3.20;100.00;101653.69;6172226;28;20050;-92
2023/01/27 13:24:41;;;;;;;5.10;2.33;;;;;;;3.14;100.00;101651.34;6169270;28;20631;-92
2023/01/27 13:27:46;;;;;;;2.67;2.22;;;;;;;3.11;100.00;101648.88;6268655;28;20085;-92
2023/01/27 13:30:52;;;;;;;3.15;2.20;;;;;;;3.22;100.00;101651.94;6306203;28;20040;-92
2023/01/27 13:34:01;;;;;;;3.53;1.95;;;;;;;3.18;100.00;101653.75;6306437;28;20052;-91
2023/01/27 13:37:17;;;;;;;1.98;1.77;;;;;;;3.20;100.00;101659.66;6308168;28;20151;-93
2023/01/27 13:40:37;;;;;;;3.35;2.10;;;;;;;3.10;100.00;101650.56;6298723;28;20046;-91
2023/01/27 13:43:45;;;;;;;4.50;2.03;;;;;;;3.05;100.00;101651.59;6301354;28;20052;-91
2023/01/27 13:46:49;;;;;;;3.05;1.75;;;;;;;2.98;100.00;101656.91;6302250;28;20100;-91
2023/01/27 13:49:55;;;;;;;2.50;1.75;;;;;;;2.90;100.00;101663.94;6305972;28;20044;-92
2023/01/27 13:52:59;;;;;;;4.22;2.03;;;;;;;2.94;100.00;101665.53;6298243;28;20504;-92
2023/01/27 13:56:33;;;;;;;3.03;1.45;;;;;;;2.90;100.00;101663.13;6303493;28;20040;-91
2023/01/27 13:59:35;;;;;;;3.33;1.92;;;;;;;2.83;100.00;101669.28;6303369;28;20040;-92
2023/01/27 14:03:06;;;;;;;2.17;1.15;;;;;;;2.75;100.00;101665.22;6305002;28;20553;-92
2023/01/27 14:06:19;;;;;;;3.63;1.40;;;;;;;2.71;100.00;101681.53;6304054;28;20512;-91
2023/01/27 14:09:44;;;;;;;2.03;1.40;;;;;;;2.74;100.00;101678.88;6303199;28;20051;-92
2023/01/27 14:13:02;;;;;;;4.85;2.80;;;;;;;2.78;100.00;101684.75;6295890;28;20036;-91
2023/01/27 14:16:23;;;;;;;6.63;2.67;;;;;;;2.67;100.00;101682.50;6300866;28;20047;-91
2023/01/27 14:19:31;;;;;;;;;;;;;;;2.58;100.00;101688.72;6293432;28;20090;-92
2023/01/27 14:23:03;;;;;;;4.55;2.22;;;;;;;2.51;100.00;101691.44;6302833;28;20419;-91
2023/01/27 14:26:30;;;;;;;2.20;2.00;;;;;;;2.49;100.00;101695.78;6298632;28;20096;-92
2023/01/27 14:29:50;;;;;;;4.60;2.05;;;;;;;2.51;100.00;101692.31;6313324;28;20047;-91
2023/01/27 14:33:04;;;;;;;5.05;3.00;;;;;;;2.56;100.00;101699.84;6310938;28;20044;-92
2023/01/27 14:36:42;;;;;;;2.67;2.00;;;;;;;2.55;100.00;101693.88;6308275;28;20046;-91
2023/01/27 14:40:07;;;;;;;5.00;2.67;;;;;;;2.52;100.00;101695.69;6310890;28;20036;-91
2023/01/27 14:43:35;;;;;;;2.92;2.63;;;;;;;2.52;100.00;101708.47;6311830;28;20516;-92
2023/01/27 14:47:05;;;;;;;3.00;2.70;;;;;;;2.50;100.00;101695.72;6311598;28;20040;-91
2023/01/27 14:50:32;;;;;;;4.85;2.83;;;;;;;2.49;100.00;101700.88;6311111;28;20082;-92
2023/01/27 14:54:07;;;;;;;5.72;2.78;;;;;;;2.51;100.00;101699.09;6307709;28;21629;-91
2023/01/27 14:57:49;;;;;;;5.45;2.40;;;;;;;2.45;100.00;101709.50;6254413;28;20056;-91
2023/01/27 15:01:32;;;;;;;4.95;3.03;;;;;;;2.43;100.00;101712.09;6241757;28;20095;-91